createdAt,value
2023-04-22T00:01:34.048Z,32.33
2023-04-22T00:04:02.382Z,29.70
2023-04-22T00:06:29.595Z,40.58
2023-04-22T00:08:56.599Z,42.03
2023-04-22T00:11:23.877Z,45.05
2023-04-22T00:13:50.743Z,43.38
2023-04-22T00:16:17.890Z,41.53
2023-04-22T00:18:44.965Z,47.08
2023-04-22T00:21:11.993Z,52.15
2023-04-22T00:23:38.895Z,50.20
2023-04-22T00:26:05.975Z,47.53
2023-04-22T00:28:33.222Z,44.40
2023-04-22T00:31:00.313Z,61.05
2023-04-22T00:33:27.208Z,50.00
2023-04-22T00:35:54.833Z,52.35
2023-04-22T00:38:23.117Z,73.65
2023-04-22T00:40:50.149Z,53.63
2023-04-22T00:43:17.883Z,52.75
2023-04-22T00:45:46.362Z,57.40
2023-04-22T00:48:14.202Z,59.65
2023-04-22T00:50:41.308Z,57.78
2023-04-22T00:53:08.344Z,53.58
2023-04-22T00:55:35.629Z,51.90
2023-04-22T00:58:03.919Z,51.00
2023-04-22T01:00:31.013Z,54.92
2023-04-22T01:02:59.274Z,58.42
2023-04-22T01:05:28.953Z,57.83
2023-04-22T01:07:55.988Z,57.78
2023-04-22T01:10:23.269Z,53.25
2023-04-22T01:12:51.737Z,50.00
2023-04-22T01:15:19.008Z,58.28
2023-04-22T01:17:46.024Z,61.50
2023-04-22T01:20:13.937Z,59.28
2023-04-22T01:22:42.681Z,59.13
2023-04-22T01:25:11.746Z,58.92
2023-04-22T01:27:39.583Z,67.47
2023-04-22T01:30:07.574Z,74.53
2023-04-22T01:32:34.992Z,73.30
2023-04-22T01:35:02.445Z,70.18
2023-04-22T01:37:30.015Z,70.25
2023-04-22T01:39:58.833Z,68.18
2023-04-22T01:42:25.986Z,60.78
2023-04-22T01:44:52.999Z,64.35
2023-04-22T01:47:19.929Z,71.25
2023-04-22T01:49:47.260Z,74.20
2023-04-22T01:52:14.451Z,75.45
2023-04-22T01:54:42.146Z,69.82
2023-04-22T01:57:14.171Z,68.00
2023-04-22T01:59:41.603Z,68.72
2023-04-22T02:02:09.287Z,72.38
2023-04-22T02:04:36.641Z,74.30
2023-04-22T02:07:03.730Z,69.03
2023-04-22T02:09:35.361Z,70.28
2023-04-22T02:12:02.433Z,74.40
2023-04-22T02:14:29.329Z,79.10
2023-04-22T02:16:56.280Z,79.32
2023-04-22T02:19:23.237Z,80.57
2023-04-22T02:21:50.740Z,76.93
2023-04-22T02:24:18.005Z,71.50
2023-04-22T02:26:44.952Z,68.72
2023-04-22T02:29:11.913Z,78.10
2023-04-22T02:31:39.121Z,79.30
2023-04-22T02:34:06.201Z,76.35
2023-04-22T02:36:34.845Z,73.35
2023-04-22T02:39:06.200Z,80.93
2023-04-22T02:41:35.129Z,74.97
2023-04-22T02:44:02.310Z,79.63
2023-04-22T02:46:29.522Z,83.53
2023-04-22T02:48:56.533Z,79.68
2023-04-22T02:51:23.594Z,78.43
2023-04-22T02:53:50.654Z,77.80
2023-04-22T02:56:17.604Z,78.38
2023-04-22T02:58:44.534Z,82.68
2023-04-22T03:01:11.906Z,76.50
2023-04-22T03:03:39.809Z,82.72
2023-04-22T03:06:09.503Z,75.18
2023-04-22T03:08:37.210Z,72.88
2023-04-22T03:11:05.598Z,75.28
2023-04-22T03:13:32.585Z,74.45
2023-04-22T03:15:59.546Z,72.10
2023-04-22T03:18:26.467Z,67.00
2023-04-22T03:20:54.324Z,77.32
2023-04-22T03:23:21.317Z,76.55
2023-04-22T03:25:48.560Z,76.28
2023-04-22T03:28:16.036Z,74.75
2023-04-22T03:30:43.095Z,75.50
2023-04-22T03:33:11.796Z,80.93
2023-04-22T03:35:44.074Z,76.53
2023-04-22T03:38:11.771Z,72.95
2023-04-22T03:40:38.671Z,79.00
2023-04-22T03:43:15.995Z,73.18
2023-04-22T03:45:51.760Z,84.10
2023-04-22T03:48:23.497Z,72.40
2023-04-22T03:50:52.660Z,70.68
2023-04-22T03:53:19.613Z,72.30
2023-04-22T03:55:47.082Z,74.75
2023-04-22T03:58:15.414Z,76.25
2023-04-22T04:00:42.755Z,77.40
2023-04-22T04:03:15.755Z,76.25
2023-04-22T04:05:44.078Z,74.70
2023-04-22T04:08:11.263Z,74.18
2023-04-22T04:10:38.556Z,75.50
2023-04-22T04:13:06.312Z,77.68
2023-04-22T04:15:43.777Z,77.78
2023-04-22T04:18:12.011Z,77.75
2023-04-22T04:20:39.086Z,80.03
2023-04-22T04:23:06.194Z,85.72
2023-04-22T04:25:38.358Z,78.40
2023-04-22T04:28:11.378Z,80.10
2023-04-22T04:30:38.568Z,74.47
2023-04-22T04:33:09.049Z,77.47
2023-04-22T04:35:38.804Z,79.90
2023-04-22T04:38:08.737Z,76.38
2023-04-22T04:40:37.185Z,84.13
2023-04-22T04:43:13.023Z,84.38
2023-04-22T04:45:49.095Z,80.60
2023-04-22T04:48:21.142Z,92.68
2023-04-22T04:50:54.293Z,86.78
2023-04-22T04:53:23.021Z,86.45
2023-04-22T04:55:50.209Z,86.50
2023-04-22T04:58:21.836Z,86.03
2023-04-22T05:00:57.896Z,93.55
2023-04-22T05:03:26.240Z,85.53
2023-04-22T05:05:54.800Z,97.10
2023-04-22T05:08:22.185Z,85.20
2023-04-22T05:10:51.178Z,93.38
2023-04-22T05:13:18.736Z,94.80
2023-04-22T05:15:47.640Z,90.25
2023-04-22T05:18:16.266Z,88.05
2023-04-22T05:20:43.470Z,91.10
2023-04-22T05:23:10.787Z,90.22
2023-04-22T05:25:37.935Z,96.20
2023-04-22T05:28:09.404Z,100.30
2023-04-22T05:30:44.419Z,107.10
2023-04-22T05:33:11.651Z,106.18
2023-04-22T05:35:39.230Z,104.50
2023-04-22T05:38:07.589Z,102.05
2023-04-22T05:40:36.841Z,104.30
2023-04-22T05:43:06.410Z,133.38
2023-04-22T05:45:34.235Z,114.53
2023-04-22T05:48:02.209Z,118.35
2023-04-22T05:50:33.158Z,126.35
2023-04-22T05:53:07.197Z,126.68
2023-04-22T05:55:34.849Z,125.20
2023-04-22T05:58:04.602Z,127.45
2023-04-22T06:00:44.228Z,121.88
2023-04-22T06:03:26.534Z,114.25
2023-04-22T06:05:53.794Z,111.97
2023-04-22T06:08:20.853Z,100.03
2023-04-22T06:10:50.762Z,95.80
2023-04-22T06:13:18.022Z,102.72
2023-04-22T06:15:45.202Z,99.90
2023-04-22T06:18:12.640Z,97.05
2023-04-22T06:20:39.882Z,101.05
2023-04-22T06:23:06.832Z,96.15
2023-04-22T06:25:33.789Z,95.03
2023-04-22T06:28:01.219Z,88.78
2023-04-22T06:30:30.138Z,88.40
2023-04-22T06:32:57.848Z,92.85
2023-04-22T06:35:26.486Z,91.97
2023-04-22T06:37:55.018Z,94.78
2023-04-22T06:40:25.082Z,92.15
2023-04-22T06:42:58.275Z,91.30
2023-04-22T06:45:43.798Z,92.60
2023-04-22T06:48:22.365Z,94.57
2023-04-22T06:51:17.283Z,92.45
2023-04-22T06:53:45.485Z,87.88
2023-04-22T06:56:16.165Z,78.95
2023-04-22T06:58:43.181Z,82.05
2023-04-22T07:01:10.651Z,74.10
2023-04-22T07:03:40.576Z,75.35
2023-04-22T07:06:11.003Z,71.10
2023-04-22T07:08:39.166Z,70.15
2023-04-22T07:11:06.403Z,68.20
2023-04-22T07:13:39.698Z,66.43
2023-04-22T07:16:06.846Z,61.55
2023-04-22T07:18:35.511Z,61.38
2023-04-22T07:21:02.540Z,62.05
2023-04-22T07:23:29.465Z,63.55
2023-04-22T07:25:56.501Z,60.50
2023-04-22T07:28:23.488Z,58.47
2023-04-22T07:30:50.497Z,55.22
2023-04-22T07:33:17.387Z,49.28
2023-04-22T07:35:44.666Z,45.33
2023-04-22T07:38:13.371Z,43.60
2023-04-22T07:40:41.624Z,45.30
2023-04-22T07:43:08.624Z,44.83
2023-04-22T07:45:35.878Z,42.63
2023-04-22T07:48:03.078Z,45.10
2023-04-22T07:50:30.134Z,40.90
2023-04-22T07:52:57.160Z,41.92
2023-04-22T07:55:24.133Z,44.55
2023-04-22T07:57:51.253Z,41.80
2023-04-22T08:00:18.422Z,43.28
2023-04-22T08:02:46.919Z,41.35
2023-04-22T08:05:14.115Z,40.70
2023-04-22T08:07:41.039Z,38.85
2023-04-22T08:10:08.454Z,38.47
2023-04-22T08:12:35.356Z,42.83
2023-04-22T08:15:02.373Z,40.28
2023-04-22T08:17:29.258Z,42.65
2023-04-22T08:19:56.225Z,46.70
2023-04-22T08:22:23.957Z,44.00
2023-04-22T08:24:51.243Z,42.47
2023-04-22T08:27:19.369Z,43.40
2023-04-22T08:29:46.363Z,43.97
2023-04-22T08:32:13.266Z,42.33
2023-04-22T08:34:40.423Z,45.33
2023-04-22T08:37:08.647Z,41.65
2023-04-22T08:39:35.745Z,48.45
2023-04-22T08:42:02.978Z,45.30
2023-04-22T08:44:30.423Z,49.60
2023-04-22T08:46:59.533Z,50.83
2023-04-22T08:49:30.325Z,53.20
2023-04-22T08:51:57.440Z,47.78
2023-04-22T08:54:24.496Z,43.25
2023-04-22T08:56:51.974Z,44.80
2023-04-22T08:59:20.131Z,39.17
2023-04-22T09:01:50.319Z,40.40
2023-04-22T09:04:18.969Z,37.60
2023-04-22T09:06:46.082Z,36.67
2023-04-22T09:09:13.013Z,37.10
2023-04-22T09:11:40.113Z,38.42
2023-04-22T09:14:07.069Z,36.20
2023-04-22T09:16:40.068Z,40.17
2023-04-22T09:19:11.801Z,35.33
2023-04-22T09:21:40.318Z,34.58
2023-04-22T09:24:09.262Z,33.38
2023-04-22T09:26:41.503Z,33.00
2023-04-22T09:29:14.274Z,31.70
2023-04-22T09:31:41.470Z,30.55
2023-04-22T09:34:09.273Z,32.75
2023-04-22T09:36:39.182Z,32.50
2023-04-22T09:39:08.199Z,32.63
2023-04-22T09:41:40.364Z,32.70
2023-04-22T09:44:14.892Z,32.92
2023-04-22T09:46:43.267Z,34.53
2023-04-22T09:49:10.689Z,33.40
2023-04-22T09:51:42.564Z,37.20
2023-04-22T09:54:11.432Z,38.47
2023-04-22T09:57:13.644Z,36.50
2023-04-22T09:59:40.969Z,37.95
2023-04-22T10:02:09.574Z,35.80
2023-04-22T10:04:36.799Z,37.08
2023-04-22T10:07:03.911Z,38.70
2023-04-22T10:09:30.964Z,39.92
2023-04-22T10:11:59.255Z,39.25
2023-04-22T10:14:26.658Z,42.75
2023-04-22T10:16:58.910Z,44.95
2023-04-22T10:19:27.546Z,48.67
2023-04-22T10:22:01.180Z,47.90
2023-04-22T10:24:29.664Z,49.80
2023-04-22T10:27:06.556Z,49.75
2023-04-22T10:29:42.559Z,45.45
2023-04-22T10:32:11.636Z,44.60
2023-04-22T10:34:41.256Z,47.05
2023-04-22T10:37:13.311Z,42.58
2023-04-22T10:39:43.408Z,47.83
2023-04-22T10:42:12.730Z,46.20
2023-04-22T10:44:47.086Z,43.13
2023-04-22T10:47:35.599Z,46.05
2023-04-22T10:50:12.895Z,44.35
2023-04-22T10:52:41.443Z,52.78
2023-04-22T10:55:08.609Z,50.83
2023-04-22T10:57:44.250Z,38.22
2023-04-22T11:00:20.364Z,39.50
2023-04-22T11:03:07.020Z,39.67
2023-04-22T11:05:35.705Z,39.97
2023-04-22T11:08:04.245Z,49.38
2023-04-22T11:10:44.575Z,40.42
2023-04-22T11:13:17.645Z,46.50
2023-04-22T11:15:48.161Z,45.60
2023-04-22T11:18:21.241Z,47.65
2023-04-22T11:20:49.910Z,51.03
2023-04-22T11:23:25.680Z,49.05
2023-04-22T11:26:02.018Z,49.90
2023-04-22T11:28:29.745Z,51.03
2023-04-22T11:31:05.106Z,46.95
2023-04-22T11:36:00.024Z,44.17
2023-04-22T11:38:27.036Z,45.63
2023-04-22T11:40:56.554Z,37.20
2023-04-22T11:43:23.558Z,38.58
2023-04-22T11:45:50.675Z,36.00
2023-04-22T11:48:17.795Z,37.78
2023-04-22T11:50:44.940Z,39.13
2023-04-22T11:53:16.109Z,42.75
2023-04-22T11:55:44.863Z,47.03
2023-04-22T11:58:27.263Z,42.95
2023-04-22T12:00:56.311Z,31.63
2023-04-22T12:03:25.674Z,27.80
2023-04-22T12:05:54.972Z,31.48
2023-04-22T12:08:26.412Z,30.60
2023-04-22T12:10:56.451Z,26.50
2023-04-22T12:13:33.129Z,26.67
2023-04-22T12:16:01.972Z,27.38
2023-04-22T12:18:47.918Z,21.17
2023-04-22T12:21:18.037Z,19.75
2023-04-22T12:23:58.021Z,16.63
2023-04-22T12:26:27.593Z,24.00
2023-04-22T12:28:57.742Z,19.30
2023-04-22T12:31:25.697Z,24.02
2023-04-22T12:33:53.698Z,28.70
2023-04-22T12:36:21.700Z,26.25
2023-04-22T12:38:49.529Z,25.52
2023-04-22T12:41:17.139Z,30.70
2023-04-22T12:43:44.524Z,35.00
2023-04-22T12:46:12.200Z,34.35
2023-04-22T12:48:39.501Z,32.95
2023-04-22T12:51:07.276Z,33.95
2023-04-22T12:53:34.925Z,30.88
2023-04-22T12:56:02.360Z,28.13
2023-04-22T12:58:29.305Z,25.45
2023-04-22T13:00:56.257Z,26.27
2023-04-22T13:03:23.303Z,25.33
2023-04-22T13:05:50.929Z,25.55
2023-04-22T13:08:17.945Z,21.92
2023-04-22T13:10:44.907Z,22.27
2023-04-22T13:15:41.697Z,17.98
2023-04-22T13:18:08.688Z,20.92
2023-04-22T13:20:36.121Z,22.48
2023-04-22T13:23:04.725Z,21.85
2023-04-22T13:25:32.186Z,19.73
2023-04-22T13:27:59.096Z,23.30
2023-04-22T13:30:26.185Z,22.25
2023-04-22T13:32:53.199Z,23.15
2023-04-22T13:35:20.780Z,23.50
2023-04-22T13:37:47.648Z,24.00
2023-04-22T13:40:14.893Z,22.25
2023-04-22T13:42:41.987Z,21.20
2023-04-22T13:45:09.499Z,20.33
2023-04-22T13:47:36.620Z,21.95
2023-04-22T13:50:05.390Z,20.77
2023-04-22T13:52:32.579Z,19.98
2023-04-22T13:54:59.591Z,20.17
2023-04-22T13:57:26.687Z,24.55
2023-04-22T13:59:53.571Z,17.83
2023-04-22T14:02:20.556Z,18.73
2023-04-22T14:04:47.606Z,18.63
2023-04-22T14:07:14.665Z,16.17
2023-04-22T14:09:42.010Z,18.63
2023-04-22T14:12:09.203Z,18.70
2023-04-22T14:14:36.353Z,16.17
2023-04-22T14:17:03.641Z,19.35
2023-04-22T14:19:31.781Z,19.27
2023-04-22T14:21:58.707Z,19.50
2023-04-22T14:24:26.178Z,20.23
2023-04-22T14:26:53.219Z,20.55
2023-04-22T14:29:20.571Z,17.77
2023-04-22T14:31:50.021Z,17.38
2023-04-22T14:34:17.569Z,16.08
2023-04-22T14:36:44.444Z,17.77
2023-04-22T14:39:11.961Z,15.38
2023-04-22T14:41:39.189Z,19.13
2023-04-22T14:44:06.178Z,17.10
2023-04-22T14:46:33.199Z,16.20
2023-04-22T14:49:00.253Z,16.98
2023-04-22T14:51:29.005Z,17.27
2023-04-22T14:53:56.620Z,19.67
2023-04-22T14:56:24.352Z,20.38
2023-04-22T14:58:51.383Z,20.02
2023-04-22T15:01:18.380Z,18.02
2023-04-22T15:03:45.588Z,19.90
2023-04-22T15:06:12.682Z,19.92
2023-04-22T15:08:40.116Z,18.75
2023-04-22T15:11:07.048Z,16.23
2023-04-22T15:13:34.042Z,18.92
2023-04-22T15:16:01.225Z,17.27
2023-04-22T15:18:29.052Z,18.02
2023-04-22T15:20:56.277Z,15.93
2023-04-22T15:23:23.756Z,19.92
2023-04-22T15:25:51.124Z,17.83
2023-04-22T15:28:18.565Z,16.25
2023-04-22T15:30:46.039Z,20.08
2023-04-22T15:33:13.517Z,19.38
2023-04-22T15:35:42.632Z,19.35
2023-04-22T15:38:10.071Z,20.38
2023-04-22T15:40:41.908Z,18.88
2023-04-22T15:43:09.383Z,15.27
2023-04-22T15:45:36.924Z,17.25
2023-04-22T15:48:06.002Z,16.63
2023-04-22T15:50:33.560Z,19.35
2023-04-22T15:53:01.091Z,18.65
2023-04-22T15:55:28.479Z,20.38
2023-04-22T15:57:55.899Z,20.27
2023-04-22T16:00:23.214Z,14.10
2023-04-22T16:02:55.784Z,15.13
2023-04-22T16:05:25.187Z,18.08
2023-04-22T16:07:53.654Z,16.17
2023-04-22T16:10:21.385Z,18.80
2023-04-22T16:12:48.921Z,16.13
2023-04-22T16:15:16.560Z,13.27
2023-04-22T16:17:44.318Z,16.73
2023-04-22T16:20:11.906Z,18.23
2023-04-22T16:22:38.916Z,15.32
2023-04-22T16:25:06.678Z,18.67
2023-04-22T16:27:33.625Z,19.08
2023-04-22T16:30:00.784Z,15.48
2023-04-22T16:32:27.762Z,17.52
2023-04-22T16:34:55.041Z,15.13
2023-04-22T16:37:21.903Z,17.70
2023-04-22T16:39:49.034Z,16.63
2023-04-22T16:42:15.979Z,15.85
2023-04-22T16:44:42.899Z,18.75
2023-04-22T16:47:09.761Z,15.77
2023-04-22T16:49:36.745Z,16.77
2023-04-22T16:52:03.655Z,14.38
2023-04-22T16:54:30.703Z,18.40
2023-04-22T16:56:57.752Z,13.70
2023-04-22T16:59:24.813Z,15.23
2023-04-22T17:01:52.073Z,14.10
2023-04-22T17:04:19.431Z,13.32
2023-04-22T17:06:46.410Z,14.80
2023-04-22T17:09:13.426Z,13.55
2023-04-22T17:11:40.427Z,16.08
2023-04-22T17:14:07.691Z,12.73
2023-04-22T17:16:34.718Z,13.82
2023-04-22T17:19:01.685Z,12.05
2023-04-22T17:21:28.832Z,12.63
2023-04-22T17:23:55.820Z,10.95
2023-04-22T17:26:22.848Z,11.50
2023-04-22T17:28:49.841Z,11.82
2023-04-22T17:31:17.230Z,10.77
2023-04-22T17:33:44.308Z,10.75
2023-04-22T17:36:11.390Z,12.07
2023-04-22T17:38:38.453Z,11.63
2023-04-22T17:41:05.498Z,12.15
2023-04-22T17:43:32.459Z,11.75
2023-04-22T17:45:59.326Z,11.10
2023-04-22T17:48:26.378Z,10.98
2023-04-22T17:50:53.266Z,11.50
2023-04-22T17:53:20.349Z,12.43
2023-04-22T17:55:47.380Z,11.32
2023-04-22T17:58:14.369Z,12.27
2023-04-22T18:00:41.316Z,12.52
2023-04-22T18:03:08.670Z,12.88
2023-04-22T18:05:35.768Z,14.27
2023-04-22T18:08:04.180Z,14.18
2023-04-22T18:10:31.635Z,15.00
2023-04-22T18:12:58.605Z,15.40
2023-04-22T18:15:25.629Z,16.33
2023-04-22T18:17:52.646Z,15.48
2023-04-22T18:20:20.140Z,17.38
2023-04-22T18:22:49.095Z,15.68
2023-04-22T18:25:16.564Z,15.75
2023-04-22T18:27:44.301Z,17.42
2023-04-22T18:30:11.604Z,17.08
2023-04-22T18:32:38.930Z,15.85
2023-04-22T18:35:06.484Z,15.93
2023-04-22T18:37:34.873Z,19.85
2023-04-22T18:40:02.505Z,18.80
2023-04-22T18:42:29.954Z,19.65
2023-04-22T18:44:56.892Z,15.77
2023-04-22T18:47:24.116Z,17.15
2023-04-22T18:49:51.241Z,17.75
2023-04-22T18:52:18.481Z,19.67
2023-04-22T18:54:45.537Z,22.17
2023-04-22T18:57:12.720Z,18.55
2023-04-22T18:59:39.823Z,19.20
2023-04-22T19:02:07.063Z,20.17
2023-04-22T19:04:34.142Z,20.80
2023-04-22T19:07:01.125Z,22.77
2023-04-22T19:09:28.125Z,22.25
2023-04-22T19:11:55.811Z,23.83
2023-04-22T19:14:22.707Z,25.83
2023-04-22T19:16:49.733Z,26.15
2023-04-22T19:19:16.618Z,27.15
2023-04-22T19:21:43.782Z,29.00
2023-04-22T19:24:13.583Z,28.30
2023-04-22T19:26:41.194Z,27.17
2023-04-22T19:29:08.356Z,30.95
2023-04-22T19:31:35.726Z,31.85
2023-04-22T19:34:03.164Z,32.72
2023-04-22T19:36:30.135Z,32.08
2023-04-22T19:38:57.031Z,37.88
2023-04-22T19:41:24.132Z,35.00
2023-04-22T19:43:51.287Z,35.90
2023-04-22T19:46:18.358Z,37.60
2023-04-22T19:48:45.438Z,36.75
2023-04-22T19:51:12.768Z,37.03
2023-04-22T19:53:41.228Z,38.00
2023-04-22T19:56:09.185Z,41.88
2023-04-22T19:58:36.456Z,38.05
2023-04-22T20:01:04.241Z,34.97
2023-04-22T20:03:31.604Z,37.60
2023-04-22T20:05:59.532Z,37.97
2023-04-22T20:08:28.284Z,36.53
2023-04-22T20:10:55.763Z,38.80
2023-04-22T20:13:23.125Z,38.00
2023-04-22T20:15:50.927Z,38.88
2023-04-22T20:18:17.950Z,38.72
2023-04-22T20:20:48.618Z,40.00
2023-04-22T20:23:17.602Z,38.33
2023-04-22T20:25:45.690Z,39.63
2023-04-22T20:28:13.054Z,39.53
2023-04-22T20:30:41.109Z,38.67
2023-04-22T20:33:10.866Z,37.80
2023-04-22T20:35:41.472Z,40.72
2023-04-22T20:38:13.377Z,37.47
2023-04-22T20:40:41.555Z,41.38
2023-04-22T20:43:08.825Z,42.47
2023-04-22T20:45:36.514Z,43.58
2023-04-22T20:48:03.708Z,41.80
2023-04-22T20:50:33.646Z,42.58
2023-04-22T20:53:01.448Z,41.38
2023-04-22T20:55:28.620Z,45.83
2023-04-22T20:57:55.910Z,43.78
2023-04-22T21:00:23.217Z,42.65
2023-04-22T21:02:51.431Z,44.13
2023-04-22T21:05:19.570Z,46.30
2023-04-22T21:07:50.167Z,43.10
2023-04-22T21:10:17.785Z,45.67
2023-04-22T21:12:45.273Z,45.53
2023-04-22T21:15:13.007Z,44.28
2023-04-22T21:17:52.070Z,48.03
2023-04-22T21:20:23.575Z,48.50
2023-04-22T21:22:52.118Z,44.58
2023-04-22T21:25:22.280Z,43.10
2023-04-22T21:27:49.884Z,45.95
2023-04-22T21:30:17.549Z,49.35
2023-04-22T21:32:44.979Z,44.92
2023-04-22T21:35:12.287Z,43.83
2023-04-22T21:37:39.688Z,50.25
2023-04-22T21:40:11.412Z,47.90
2023-04-22T21:42:38.714Z,46.47
2023-04-22T21:45:06.601Z,49.13
2023-04-22T21:47:34.017Z,47.85
2023-04-22T21:50:01.473Z,48.58
2023-04-22T21:52:28.822Z,47.00
2023-04-22T21:54:56.208Z,50.20
2023-04-22T21:57:23.826Z,47.05
2023-04-22T21:59:51.009Z,48.03
2023-04-22T22:02:18.489Z,45.63
2023-04-22T22:04:46.081Z,43.72
2023-04-22T22:07:14.904Z,44.65
2023-04-22T22:09:43.894Z,45.80
2023-04-22T22:12:12.216Z,46.67
2023-04-22T22:14:39.724Z,44.85
2023-04-22T22:17:08.483Z,47.47
2023-04-22T22:19:35.806Z,43.20
2023-04-22T22:22:02.858Z,44.92
2023-04-22T22:24:29.972Z,47.80
2023-04-22T22:26:58.113Z,49.17
2023-04-22T22:29:25.518Z,47.35
2023-04-22T22:31:52.877Z,47.45
2023-04-22T22:34:20.443Z,44.67
2023-04-22T22:36:47.776Z,44.58
2023-04-22T22:39:16.367Z,46.00
2023-04-22T22:41:44.428Z,43.75
2023-04-22T22:44:11.785Z,46.33
2023-04-22T22:46:40.509Z,46.55
2023-04-22T22:49:07.817Z,47.92
2023-04-22T22:51:37.729Z,47.97
2023-04-22T22:54:05.584Z,48.55
2023-04-22T22:56:32.905Z,47.72
2023-04-22T22:59:00.965Z,47.85
2023-04-22T23:01:28.329Z,46.60
2023-04-22T23:03:56.154Z,44.65
2023-04-22T23:06:23.783Z,47.35
2023-04-22T23:08:51.270Z,49.90
2023-04-22T23:11:18.624Z,46.63
2023-04-22T23:13:46.608Z,49.47
2023-04-22T23:16:13.900Z,48.08
2023-04-22T23:18:42.695Z,46.08
2023-04-22T23:21:11.536Z,54.20
2023-04-22T23:23:40.853Z,50.67
2023-04-22T23:26:08.357Z,49.42
2023-04-22T23:28:35.989Z,50.42
2023-04-22T23:31:06.126Z,45.63
2023-04-22T23:33:36.550Z,46.30
2023-04-22T23:36:09.300Z,46.13
2023-04-22T23:38:36.697Z,49.08
2023-04-22T23:41:03.829Z,47.50
2023-04-22T23:43:31.099Z,42.75
2023-04-22T23:45:58.587Z,43.38
2023-04-22T23:48:25.875Z,44.72
2023-04-22T23:50:52.993Z,47.03
2023-04-22T23:53:20.320Z,44.75
2023-04-22T23:55:48.059Z,43.33
2023-04-22T23:58:15.716Z,45.95
